Time;durP1;ratioP1;P1;durP2;ratioP2;P2;SDS_P1;SDS_P2;PMS_P1;PMS_P2;Temp;Humidity;BMP_temperature;BMP_pressure;BME280_temperature;BME280_humidity;BME280_pressure;Samples;Min_cycle;Max_cycle;Signal;HPM_P1;HPM_P2
2023/05/11 00:00:45;;;;;;;38.90;20.77;;;;;;;-146.25;100.00;52327.66;2096089;28;34795;-62
2023/05/11 00:01:48;;;;;;;40.50;19.33;;;;;;;-146.25;100.00;52349.94;2096342;28;32539;-61
2023/05/11 00:02:50;;;;;;;38.10;20.10;;;;;;;-146.25;100.00;52329.66;2096345;28;34469;-62
2023/05/11 00:03:52;;;;;;;39.80;21.48;;;;;;;-146.25;100.00;52368.19;2096433;28;34610;-61
2023/05/11 00:04:54;;;;;;;38.80;21.80;;;;;;;-146.25;100.00;52325.63;2096547;28;32408;-62
2023/05/11 00:05:56;;;;;;;44.17;22.20;;;;;;;-146.25;100.00;52311.44;2095763;28;36100;-61
2023/05/11 00:06:58;;;;;;;40.28;21.30;;;;;;;-146.25;100.00;52364.13;2095326;28;33897;-62
2023/05/11 00:07:59;;;;;;;41.63;20.35;;;;;;;-146.25;100.00;52327.66;2096613;28;35785;-62
2023/05/11 00:09:01;;;;;;;41.85;21.63;;;;;;;-146.25;100.00;52341.84;2096797;28;20033;-62
2023/05/11 00:10:06;;;;;;;44.20;21.80;;;;;;;-146.25;100.00;52345.91;2097200;28;20189;-62
2023/05/11 00:11:08;;;;;;;41.80;21.25;;;;;;;-146.25;100.00;52327.66;2095112;28;32852;-62
2023/05/11 00:12:11;;;;;;;39.03;20.80;;;;;;;-146.25;100.00;52309.41;2096655;28;20132;-62
2023/05/11 00:13:13;;;;;;;42.35;21.60;;;;;;;-146.25;100.00;52335.75;2095272;28;36810;-62
2023/05/11 00:14:14;;;;;;;38.30;20.88;;;;;;;-146.25;100.00;52315.47;2096448;28;35705;-62
2023/05/11 00:15:16;;;;;;;42.03;22.25;;;;;;;-146.25;100.00;52327.66;2097320;28;20045;-62
2023/05/11 00:16:18;;;;;;;41.33;21.10;;;;;;;-146.25;100.00;52327.66;2097045;28;20037;-62
2023/05/11 00:17:20;;;;;;;39.65;20.77;;;;;;;-146.25;100.00;52370.22;2096491;28;35435;-62
2023/05/11 00:18:22;;;;;;;38.30;21.52;;;;;;;-146.25;100.00;52285.06;2096979;28;33717;-62
2023/05/11 00:19:23;;;;;;;38.63;20.58;;;;;;;-146.25;100.00;52376.31;2096303;28;37836;-62
2023/05/11 00:20:25;;;;;;;39.45;20.58;;;;;;;-146.25;100.00;52327.66;2096728;28;32156;-62
2023/05/11 00:21:27;;;;;;;42.22;21.23;;;;;;;-146.25;100.00;52354.00;2096058;28;35772;-62
2023/05/11 00:22:29;;;;;;;42.33;21.63;;;;;;;-146.25;100.00;52329.66;2096972;28;20041;-62
2023/05/11 00:23:30;;;;;;;42.28;20.90;;;;;;;-146.25;100.00;52319.53;2096918;28;20029;-62
2023/05/11 00:24:32;;;;;;;39.88;20.80;;;;;;;-146.25;100.00;52351.97;2096597;28;35519;-62
2023/05/11 00:25:34;;;;;;;42.58;20.05;;;;;;;-146.25;100.00;52335.75;2097337;28;21087;-62
2023/05/11 00:26:36;;;;;;;37.85;19.88;;;;;;;-146.25;100.00;52317.50;2096307;28;36938;-62
2023/05/11 00:27:38;;;;;;;36.08;19.95;;;;;;;-146.25;100.00;52335.75;2095934;28;36214;-64
2023/05/11 00:28:39;;;;;;;34.28;19.48;;;;;;;-146.25;100.00;52335.75;2096580;28;29873;-62
2023/05/11 00:29:41;;;;;;;37.42;20.00;;;;;;;-146.25;100.00;52323.59;2096432;28;29956;-62
2023/05/11 00:30:44;;;;;;;38.58;20.10;;;;;;;-146.25;100.00;52351.97;2096427;28;20041;-62
2023/05/11 00:31:47;;;;;;;37.95;21.42;;;;;;;-146.25;100.00;52368.19;2095148;28;37960;-62
2023/05/11 00:32:51;;;;;;;42.40;20.80;;;;;;;-146.25;100.00;52333.72;2096850;28;20110;-61
2023/05/11 00:33:53;;;;;;;36.50;20.92;;;;;;;-146.25;100.00;52339.81;2095872;28;22209;-62
2023/05/11 00:34:55;;;;;;;36.17;19.92;;;;;;;-146.25;100.00;52299.25;2095985;28;29605;-62
2023/05/11 00:35:57;;;;;;;36.90;20.02;;;;;;;-146.25;100.00;52343.88;2095679;28;20822;-62
2023/05/11 00:36:58;;;;;;;38.05;19.58;;;;;;;-146.25;100.00;52382.38;2096148;28;28802;-62
2023/05/11 00:38:01;;;;;;;39.70;20.73;;;;;;;-146.25;100.00;52358.06;2088026;28;21025;-62
2023/05/11 00:39:02;;;;;;;39.78;21.10;;;;;;;-146.25;100.00;52341.84;2087472;28;28781;-62
2023/05/11 00:40:05;;;;;;;40.60;21.20;;;;;;;-146.25;100.00;52333.72;2087781;28;27916;-62
2023/05/11 00:41:08;;;;;;;41.58;22.50;;;;;;;-146.25;100.00;52335.75;2087098;28;20052;-62
2023/05/11 00:42:10;;;;;;;39.55;21.20;;;;;;;-146.25;100.00;52331.69;2079485;28;20197;-62
2023/05/11 00:43:12;;;;;;;38.90;20.42;;;;;;;-146.25;100.00;52327.66;2087898;28;20045;-63
2023/05/11 00:44:14;;;;;;;36.60;20.23;;;;;;;-146.25;100.00;52372.25;2095724;28;26867;-62
2023/05/11 00:45:15;;;;;;;41.13;20.80;;;;;;;-146.25;100.00;52364.13;2097074;28;20238;-61
2023/05/11 00:46:22;;;;;;;40.47;20.73;;;;;;;-146.25;100.00;52281.00;2094463;28;27938;-62
2023/05/11 00:47:24;;;;;;;37.45;19.92;;;;;;;-146.25;100.00;52337.78;2096233;28;20045;-62
2023/05/11 00:48:26;;;;;;;36.67;19.58;;;;;;;-146.25;100.00;52256.69;2095986;28;20926;-62
2023/05/11 00:49:30;;;;;;;35.97;20.75;;;;;;;-146.25;100.00;52333.72;2096387;28;31835;-62
2023/05/11 00:50:32;;;;;;;35.53;19.73;;;;;;;-146.25;100.00;52321.56;2087452;28;20423;-62
2023/05/11 00:51:34;;;;;;;37.50;19.55;;;;;;;-146.25;100.00;52341.84;2080128;28;20042;-62
2023/05/11 00:52:36;;;;;;;36.67;20.08;;;;;;;-146.25;100.00;52351.97;2087975;28;20092;-62
2023/05/11 00:53:38;;;;;;;37.08;19.63;;;;;;;-146.25;100.00;52337.78;2096007;28;20106;-62
2023/05/11 00:54:43;;;;;;;36.17;19.70;;;;;;;-146.25;100.00;52370.22;2095769;28;30702;-62
2023/05/11 00:55:45;;;;;;;38.72;19.63;;;;;;;-146.25;100.00;52319.53;2087663;28;27215;-63
2023/05/11 00:56:47;;;;;;;35.28;19.80;;;;;;;-146.25;100.00;52372.25;2087398;28;30175;-62
2023/05/11 00:57:49;;;;;;;39.80;21.08;;;;;;;-146.25;100.00;52297.22;2088242;28;20596;-62
2023/05/11 00:58:51;;;;;;;36.22;20.27;;;;;;;-146.25;100.00;52327.66;2095869;28;31124;-62
2023/05/11 00:59:56;;;;;;;40.38;19.73;;;;;;;-146.25;100.00;52335.75;2087375;28;25719;-62
2023/05/11 01:00:58;;;;;;;36.22;19.48;;;;;;;-146.25;100.00;52337.78;2087912;28;20061;-62
2023/05/11 01:01:59;;;;;;;34.70;19.88;;;;;;;-146.25;100.00;52307.38;2096961;28;20914;-61
2023/05/11 01:03:02;;;;;;;37.05;19.55;;;;;;;-146.25;100.00;52386.44;2095484;28;22506;-62
2023/05/11 01:04:04;;;;;;;32.95;19.15;;;;;;;-146.25;100.00;52358.06;2088064;28;20157;-62
2023/05/11 01:05:07;;;;;;;37.00;19.17;;;;;;;-146.25;100.00;52335.75;2088390;28;20909;-62
2023/05/11 01:06:20;;;;;;;35.47;19.23;;;;;;;-146.25;100.00;52321.56;2097038;28;20175;-61
2023/05/11 01:07:33;;;;;;;30.85;18.20;;;;;;;-146.25;100.00;52329.66;2096649;28;20048;-63
2023/05/11 01:08:57;;;;;;;35.28;18.63;;;;;;;-146.25;100.00;52368.19;2087936;28;20139;-62
2023/05/11 01:10:43;;;;;;;36.38;20.17;;;;;;;-146.25;100.00;52376.31;2091151;28;20037;-62
2023/05/11 01:11:59;;;;;;;32.53;17.20;;;;;;;-146.25;100.00;52341.84;2054357;28;20047;-62
2023/05/11 01:13:29;;;;;;;35.20;19.40;;;;;;;-146.25;100.00;52343.88;2070555;28;20081;-62
2023/05/11 01:14:55;;;;;;;31.45;18.48;;;;;;;-146.25;100.00;52343.88;2086220;28;20953;-63
2023/05/11 01:16:00;;;;;;;38.28;18.92;;;;;;;-146.25;100.00;52321.56;2082187;28;30108;-62
2023/05/11 01:17:10;;;;;;;38.63;20.67;;;;;;;-146.25;100.00;52370.22;2079276;28;27375;-62
2023/05/11 01:18:27;;;;;;;34.85;19.58;;;;;;;-146.25;100.00;52327.66;2089522;28;20119;-62
2023/05/11 01:20:00;;;;;;;41.50;20.95;;;;;;;-146.25;100.00;52354.00;2079295;28;20128;-62
2023/05/11 01:21:05;;;;;;;33.97;19.13;;;;;;;-146.25;100.00;52335.75;2089440;28;20164;-62
2023/05/11 01:22:44;;;;;;;37.72;21.30;;;;;;;-146.25;100.00;52303.31;2090308;28;25944;-62
2023/05/11 01:24:36;;;;;;;38.20;20.65;;;;;;;-146.25;100.00;52329.66;2086013;28;20033;-62
2023/05/11 01:26:06;;;;;;;38.67;19.75;;;;;;;-146.25;100.00;52368.19;2097979;28;20999;-62
2023/05/11 01:27:43;;;;;;;38.90;21.88;;;;;;;-146.25;100.00;52329.66;2098380;28;20842;-62
2023/05/11 01:29:15;;;;;;;39.85;20.17;;;;;;;-146.25;100.00;52335.75;2096618;28;20059;-62
2023/05/11 01:30:35;;;;;;;42.22;21.70;;;;;;;-146.25;100.00;52349.94;2085003;28;20052;-62
2023/05/11 01:31:41;;;;;;;45.15;22.80;;;;;;;-146.25;100.00;52380.38;2082913;28;29847;-62
2023/05/11 01:32:44;;;;;;;42.33;22.95;;;;;;;-146.25;100.00;52356.03;2079804;28;30921;-62
2023/05/11 01:33:54;;;;;;;38.13;21.02;;;;;;;-146.25;100.00;52360.09;2088904;28;37062;-63
2023/05/11 01:35:16;;;;;;;42.65;22.30;;;;;;;-146.25;100.00;52335.75;2095509;28;20026;-62
2023/05/11 01:36:24;;;;;;;38.85;20.50;;;;;;;-146.25;100.00;52356.03;2088249;28;24150;-62
2023/05/11 01:37:29;;;;;;;43.47;21.58;;;;;;;-146.25;100.00;52349.94;2080436;28;20054;-62
2023/05/11 01:38:34;;;;;;;42.08;21.60;;;;;;;-146.25;100.00;52384.41;2090368;28;20930;-62
2023/05/11 01:39:51;;;;;;;43.10;22.23;;;;;;;-146.25;100.00;52351.97;2096582;28;20033;-62
2023/05/11 01:40:56;;;;;;;40.83;20.73;;;;;;;-146.25;100.00;52356.03;2080514;28;20054;-63
2023/05/11 01:42:06;;;;;;;38.42;21.75;;;;;;;-146.25;100.00;52368.19;2080836;28;22906;-62
2023/05/11 01:43:17;;;;;;;42.83;21.55;;;;;;;-146.25;100.00;52325.63;2097520;28;20180;-62
2023/05/11 01:44:24;;;;;;;45.75;22.65;;;;;;;-146.25;100.00;52341.84;2093388;28;31946;-62
2023/05/11 01:45:30;;;;;;;45.67;22.95;;;;;;;-146.25;100.00;52374.28;2092401;28;23105;-62
2023/05/11 01:46:33;;;;;;;49.88;23.35;;;;;;;-146.25;100.00;52315.47;2081061;28;25683;-62
2023/05/11 01:47:38;;;;;;;47.90;24.48;;;;;;;-146.25;100.00;52354.00;2081700;28;20180;-62
2023/05/11 01:48:47;;;;;;;47.05;23.38;;;;;;;-146.25;100.00;52351.97;2081251;28;27028;-62
2023/05/11 01:49:51;;;;;;;46.17;22.20;;;;;;;-146.25;100.00;52356.03;2088435;28;30014;-62
2023/05/11 01:50:58;;;;;;;47.30;23.75;;;;;;;-146.25;100.00;52335.75;2081451;28;26306;-62
2023/05/11 01:52:02;;;;;;;52.42;24.80;;;;;;;-146.25;100.00;52343.88;2082497;28;20041;-62
2023/05/11 01:53:06;;;;;;;54.67;25.25;;;;;;;-146.25;100.00;52325.63;2089740;28;30467;-62
2023/05/11 01:54:10;;;;;;;55.35;26.30;;;;;;;-146.25;100.00;52384.41;2088641;28;32228;-62
2023/05/11 01:55:16;;;;;;;53.42;25.83;;;;;;;-146.25;100.00;52349.94;2088902;28;32519;-62
2023/05/11 01:56:23;;;;;;;53.28;25.52;;;;;;;-146.25;100.00;52329.66;2096415;28;28142;-62
2023/05/11 01:57:26;;;;;;;56.50;26.45;;;;;;;-146.25;100.00;52362.13;2082264;28;20041;-62
2023/05/11 01:58:29;;;;;;;53.38;26.05;;;;;;;-146.25;100.00;52368.19;2080730;28;20049;-62
2023/05/11 01:59:32;;;;;;;62.13;26.50;;;;;;;-146.25;100.00;52329.66;2080896;28;25319;-62
2023/05/11 02:00:35;;;;;;;56.80;25.75;;;;;;;-146.25;100.00;52358.06;2079185;28;34949;-62
2023/05/11 02:01:39;;;;;;;61.78;25.98;;;;;;;-146.25;100.00;52343.88;2072742;28;20042;-62
2023/05/11 02:02:46;;;;;;;59.35;26.40;;;;;;;-146.25;100.00;52343.88;2073204;28;22909;-62
2023/05/11 02:03:50;;;;;;;57.42;26.42;;;;;;;-146.25;100.00;52331.69;2081303;28;33220;-61
2023/05/11 02:04:53;;;;;;;62.22;26.05;;;;;;;-146.25;100.00;52319.53;2079975;28;32616;-62
2023/05/11 02:05:56;;;;;;;62.65;26.27;;;;;;;-146.25;100.00;52356.03;2072824;28;20170;-62
2023/05/11 02:07:00;;;;;;;61.85;26.17;;;;;;;-146.25;100.00;52368.19;2064578;28;20171;-62
2023/05/11 02:08:05;;;;;;;61.30;26.65;;;;;;;-146.25;100.00;52351.97;2081081;28;20072;-62
2023/05/11 02:09:11;;;;;;;63.97;26.63;;;;;;;-146.25;100.00;52313.44;2096042;28;20080;-62
2023/05/11 02:10:15;;;;;;;61.60;26.02;;;;;;;-146.25;100.00;52364.13;2097087;28;20049;-62
2023/05/11 02:11:21;;;;;;;59.13;25.88;;;;;;;-146.25;100.00;52356.03;2087350;28;20970;-63
2023/05/11 02:12:25;;;;;;;67.53;26.85;;;;;;;-146.25;100.00;52354.00;2089195;28;20140;-62
2023/05/11 02:13:29;;;;;;;60.65;25.27;;;;;;;-146.25;100.00;52364.13;2096917;28;20045;-62
2023/05/11 02:14:35;;;;;;;63.67;26.00;;;;;;;-146.25;100.00;52351.97;2071789;28;20043;-62
2023/05/11 02:15:40;;;;;;;62.38;26.13;;;;;;;-146.25;100.00;52335.75;2078980;28;20046;-63
2023/05/11 02:16:45;;;;;;;66.82;27.23;;;;;;;-146.25;100.00;52351.97;2087124;28;22880;-62
2023/05/11 02:17:47;;;;;;;67.90;26.77;;;;;;;-146.25;100.00;52343.88;2073732;28;20052;-63
2023/05/11 02:18:49;;;;;;;65.13;25.35;;;;;;;-146.25;100.00;52351.97;2080711;28;20685;-62
2023/05/11 02:19:52;;;;;;;65.40;24.88;;;;;;;-146.25;100.00;52345.91;2088640;28;23038;-63
2023/05/11 02:20:55;;;;;;;77.43;25.40;;;;;;;-146.25;100.00;52343.88;2088972;28;20996;-62
2023/05/11 02:21:59;;;;;;;94.65;24.73;;;;;;;-146.25;100.00;52339.81;2080613;28;20097;-63
2023/05/11 02:23:04;;;;;;;68.35;25.23;;;;;;;-146.25;100.00;52364.13;2088683;28;24843;-63
2023/05/11 02:24:08;;;;;;;75.55;26.23;;;;;;;-146.25;100.00;52360.09;2087606;28;20107;-63
2023/05/11 02:25:11;;;;;;;74.03;25.27;;;;;;;-146.25;100.00;52349.94;2082130;28;20148;-63
2023/05/11 02:26:15;;;;;;;72.93;25.80;;;;;;;-146.25;100.00;52313.44;2088580;28;20087;-63
2023/05/11 02:27:17;;;;;;;73.93;26.30;;;;;;;-146.25;100.00;52372.25;2080433;28;21069;-63
2023/05/11 02:28:19;;;;;;;78.63;27.00;;;;;;;-146.25;100.00;52339.81;2087560;28;22309;-63
2023/05/11 02:29:22;;;;;;;67.50;25.40;;;;;;;-146.25;100.00;52374.28;2080570;28;20054;-63
2023/05/11 02:30:27;;;;;;;67.75;23.70;;;;;;;-146.25;100.00;52354.00;2080019;28;20046;-62
2023/05/11 02:31:39;;;;;;;53.05;22.13;;;;;;;-146.25;100.00;52366.16;2080814;28;20083;-63
2023/05/11 02:32:49;;;;;;;54.75;22.58;;;;;;;-146.25;100.00;52364.13;2088397;28;20973;-62
2023/05/11 02:33:53;;;;;;;59.20;22.23;;;;;;;-146.25;100.00;52392.53;2074304;28;20925;-63
2023/05/11 02:35:00;;;;;;;54.80;21.70;;;;;;;-146.25;100.00;52347.91;2082052;28;20038;-63
2023/05/11 02:36:05;;;;;;;56.30;22.05;;;;;;;-146.25;100.00;52366.16;2088697;28;20044;-63
2023/05/11 02:37:20;;;;;;;64.13;22.60;;;;;;;-146.25;100.00;52329.66;2080846;28;20042;-62
2023/05/11 02:38:31;;;;;;;60.08;21.92;;;;;;;-146.25;100.00;52333.72;2082756;28;20049;-63
2023/05/11 02:39:35;;;;;;;60.25;20.92;;;;;;;-146.25;100.00;52368.19;2088526;28;20836;-63
2023/05/11 02:40:45;;;;;;;61.05;20.98;;;;;;;-146.25;100.00;52402.66;2089818;28;24093;-62
2023/05/11 02:41:55;;;;;;;59.53;20.45;;;;;;;-146.25;100.00;52307.38;2088638;28;20042;-63
2023/05/11 02:43:10;;;;;;;54.38;20.20;;;;;;;-146.25;100.00;52366.16;2081078;28;20072;-62
2023/05/11 02:44:17;;;;;;;48.40;19.13;;;;;;;-146.25;100.00;52349.94;2079415;28;20042;-62
2023/05/11 02:45:19;;;;;;;50.45;19.00;;;;;;;-146.25;100.00;52343.88;2081759;28;20113;-61
2023/05/11 02:46:28;;;;;;;47.28;18.55;;;;;;;-146.25;100.00;52321.56;2088090;28;32766;-63
2023/05/11 02:47:38;;;;;;;51.78;19.13;;;;;;;-146.25;100.00;52343.88;2089896;28;20064;-62
2023/05/11 02:48:50;;;;;;;58.28;20.42;;;;;;;-146.25;100.00;52372.25;2088749;28;20099;-62
2023/05/11 02:49:56;;;;;;;50.92;19.83;;;;;;;-146.25;100.00;52339.81;2081549;28;20823;-62
2023/05/11 02:51:02;;;;;;;48.65;19.42;;;;;;;-146.25;100.00;52360.09;2089459;28;20111;-62
2023/05/11 02:52:10;;;;;;;48.40;18.23;;;;;;;-146.25;100.00;52349.94;2095867;28;20045;-62
2023/05/11 02:53:18;;;;;;;47.42;18.50;;;;;;;-146.25;100.00;52360.09;2088655;28;20038;-62
2023/05/11 02:54:23;;;;;;;46.65;18.73;;;;;;;-146.25;100.00;52376.31;2080584;28;20057;-62
2023/05/11 02:55:28;;;;;;;51.08;19.05;;;;;;;-146.25;100.00;52356.03;2080868;28;20904;-63
2023/05/11 02:56:30;;;;;;;44.85;18.00;;;;;;;-146.25;100.00;52319.53;2080269;28;31892;-62
2023/05/11 02:57:33;;;;;;;45.13;17.80;;;;;;;-146.25;100.00;52347.91;2080492;28;20050;-62
2023/05/11 02:58:40;;;;;;;46.58;18.38;;;;;;;-146.25;100.00;52354.00;2089404;28;20046;-62
2023/05/11 03:00:02;;;;;;;;;;;;;;;-146.25;100.00;52382.38;2080804;28;20046;-62
2023/05/11 03:01:07;;;;;;;42.10;16.00;;;;;;;-146.25;100.00;52351.97;2091271;28;19921;-62
2023/05/11 03:02:09;;;;;;;43.00;16.67;;;;;;;-146.25;100.00;52335.75;2096938;28;20284;-62
2023/05/11 03:03:14;;;;;;;43.03;17.08;;;;;;;-146.25;100.00;52366.16;2081036;28;20085;-62
2023/05/11 03:04:17;;;;;;;40.45;17.00;;;;;;;-146.25;100.00;52358.06;2080105;28;22027;-62
2023/05/11 03:05:19;;;;;;;38.85;15.52;;;;;;;-146.25;100.00;52345.91;2087786;28;35391;-63
2023/05/11 03:06:20;;;;;;;42.17;16.67;;;;;;;-146.25;100.00;52364.13;2096896;28;28205;-63
2023/05/11 03:07:22;;;;;;;47.42;17.65;;;;;;;-146.25;100.00;52321.56;2088200;28;20049;-62
2023/05/11 03:08:24;;;;;;;41.45;16.25;;;;;;;-146.25;100.00;52333.72;2080119;28;20034;-62
2023/05/11 03:09:26;;;;;;;39.13;15.80;;;;;;;-146.25;100.00;52321.56;2080212;28;20057;-62
2023/05/11 03:10:28;;;;;;;39.80;16.52;;;;;;;-146.25;100.00;52347.91;2072279;28;20856;-62
2023/05/11 03:11:31;;;;;;;40.97;16.45;;;;;;;-146.25;100.00;52339.81;2080299;28;20791;-63
2023/05/11 03:12:37;;;;;;;37.30;15.98;;;;;;;-146.25;100.00;52343.88;2079995;28;20846;-62
2023/05/11 03:13:44;;;;;;;37.30;15.75;;;;;;;-146.25;100.00;52356.03;2088580;28;20920;-63
2023/05/11 03:14:48;;;;;;;41.17;16.95;;;;;;;-146.25;100.00;52384.41;2090263;28;20041;-62
2023/05/11 03:15:51;;;;;;;41.47;16.60;;;;;;;-146.25;100.00;52370.22;2096669;28;20034;-63
2023/05/11 03:16:55;;;;;;;41.10;17.15;;;;;;;-146.25;100.00;52384.41;2095955;28;20045;-62
2023/05/11 03:17:59;;;;;;;41.88;17.67;;;;;;;-146.25;100.00;52341.84;2080577;28;20053;-62
2023/05/11 03:19:05;;;;;;;37.92;16.90;;;;;;;-146.25;100.00;52368.19;2080538;28;20164;-63
2023/05/11 03:20:10;;;;;;;40.17;16.80;;;;;;;-146.25;100.00;52329.66;2087487;28;20096;-63
2023/05/11 03:21:16;;;;;;;36.58;16.58;;;;;;;-146.25;100.00;52339.81;2089272;28;20038;-63
2023/05/11 03:22:20;;;;;;;40.65;16.80;;;;;;;-146.25;100.00;52360.09;2088068;28;20937;-63
2023/05/11 03:23:22;;;;;;;43.78;17.30;;;;;;;-146.25;100.00;52356.03;2089172;28;20115;-63
2023/05/11 03:24:25;;;;;;;42.50;16.30;;;;;;;-146.25;100.00;52360.09;2088981;28;20037;-63
2023/05/11 03:25:29;;;;;;;38.85;15.45;;;;;;;-146.25;100.00;52339.81;2096813;28;22101;-63
2023/05/11 03:26:36;;;;;;;37.45;15.90;;;;;;;-146.25;100.00;52360.09;2088015;28;27960;-63
2023/05/11 03:27:41;;;;;;;35.00;15.20;;;;;;;-146.25;100.00;52331.69;2089042;28;21095;-63
2023/05/11 03:28:45;;;;;;;33.55;15.30;;;;;;;-146.25;100.00;52335.75;2096103;28;20065;-63
2023/05/11 03:29:48;;;;;;;33.55;16.48;;;;;;;-146.25;100.00;52333.72;2079453;28;20112;-63
2023/05/11 03:30:52;;;;;;;35.05;15.70;;;;;;;-146.25;100.00;52372.25;2088802;28;20431;-63
2023/05/11 03:31:57;;;;;;;31.65;14.70;;;;;;;-146.25;100.00;52412.81;2104156;28;20090;-63
2023/05/11 03:33:00;;;;;;;33.95;14.20;;;;;;;-146.25;100.00;52349.94;2096511;28;20045;-63
2023/05/11 03:34:02;;;;;;;32.15;14.48;;;;;;;-146.25;100.00;52331.69;2096442;28;20092;-63
2023/05/11 03:35:09;;;;;;;35.53;15.02;;;;;;;-146.25;100.00;52364.13;2087687;28;20803;-63
2023/05/11 03:36:12;;;;;;;36.53;15.40;;;;;;;-146.25;100.00;52370.22;2081095;28;20911;-63
2023/05/11 03:37:17;;;;;;;31.30;14.73;;;;;;;-146.25;100.00;52384.41;2087996;28;20952;-63
2023/05/11 03:38:23;;;;;;;31.50;14.30;;;;;;;-146.25;100.00;52331.69;2088176;28;20037;-63
2023/05/11 03:39:30;;;;;;;31.60;14.90;;;;;;;-146.25;100.00;52325.63;2080674;28;20064;-63
2023/05/11 03:40:33;;;;;;;30.33;14.27;;;;;;;-146.25;100.00;52351.97;2088067;28;20075;-62
2023/05/11 03:41:38;;;;;;;33.17;15.10;;;;;;;-146.25;100.00;52335.75;2080080;28;20053;-63
2023/05/11 03:42:42;;;;;;;39.13;15.05;;;;;;;-146.25;100.00;52341.84;2088869;28;20274;-63
2023/05/11 03:43:48;;;;;;;30.55;15.10;;;;;;;-146.25;100.00;52356.03;2087006;28;20838;-63
2023/05/11 03:44:57;;;;;;;30.23;14.68;;;;;;;-146.25;100.00;52380.38;2081456;28;20093;-63
2023/05/11 03:46:01;;;;;;;36.55;15.65;;;;;;;-146.25;100.00;52374.28;2088174;28;22554;-63
2023/05/11 03:47:04;;;;;;;34.15;14.80;;;;;;;-146.25;100.00;52360.09;2096295;28;23311;-63
2023/05/11 03:48:08;;;;;;;37.67;15.57;;;;;;;-146.25;100.00;52364.13;2088562;28;20799;-62
2023/05/11 03:49:11;;;;;;;34.17;14.85;;;;;;;-146.25;100.00;52319.53;2072774;28;20125;-62
2023/05/11 03:50:18;;;;;;;32.97;14.90;;;;;;;-146.25;100.00;52351.97;2088681;28;20042;-62
2023/05/11 03:51:20;;;;;;;32.40;15.23;;;;;;;-146.25;100.00;52339.81;2080504;28;20254;-63
2023/05/11 03:52:23;;;;;;;40.78;15.20;;;;;;;-146.25;100.00;52337.78;2072290;28;20136;-62
2023/05/11 03:53:27;;;;;;;33.25;15.48;;;;;;;-146.25;100.00;52360.09;2080562;28;20212;-63
2023/05/11 03:54:29;;;;;;;35.60;15.10;;;;;;;-146.25;100.00;52349.94;2080027;28;20153;-63
2023/05/11 03:55:31;;;;;;;34.90;15.23;;;;;;;-146.25;100.00;52366.16;2088119;28;29720;-63
2023/05/11 03:56:37;;;;;;;38.08;15.40;;;;;;;-146.25;100.00;52368.19;2088025;28;20038;-63
2023/05/11 03:57:39;;;;;;;36.70;15.35;;;;;;;-146.25;100.00;52372.25;2089082;28;20037;-63
2023/05/11 03:58:41;;;;;;;38.88;15.07;;;;;;;-146.25;100.00;52337.78;2096477;28;20210;-63
2023/05/11 03:59:43;;;;;;;43.30;14.60;;;;;;;-146.25;100.00;52388.47;2096139;28;24092;-63
2023/05/11 04:00:47;;;;;;;45.33;14.50;;;;;;;-146.25;100.00;52358.06;2097082;28;24667;-63
2023/05/11 04:01:51;;;;;;;35.08;14.88;;;;;;;-146.25;100.00;52368.19;2087947;28;20038;-63
2023/05/11 04:02:53;;;;;;;33.55;14.52;;;;;;;-146.25;100.00;52315.47;2088280;28;20084;-62
2023/05/11 04:03:55;;;;;;;37.67;14.48;;;;;;;-146.25;100.00;52366.16;2096356;28;32345;-63
2023/05/11 04:04:57;;;;;;;33.15;13.95;;;;;;;-146.25;100.00;52351.97;2087730;28;20081;-63
2023/05/11 04:05:59;;;;;;;34.20;14.93;;;;;;;-146.25;100.00;52366.16;2088210;28;20042;-63
2023/05/11 04:07:01;;;;;;;36.90;15.23;;;;;;;-146.25;100.00;52372.25;2087632;28;20053;-62
2023/05/11 04:08:03;;;;;;;34.75;14.68;;;;;;;-146.25;100.00;52378.34;2079830;28;20235;-63
2023/05/11 04:09:05;;;;;;;30.98;14.05;;;;;;;-146.25;100.00;52351.97;2071906;28;20117;-63
2023/05/11 04:10:10;;;;;;;30.38;13.55;;;;;;;-146.25;100.00;52368.19;2080269;28;32449;-62
2023/05/11 04:11:11;;;;;;;25.58;12.45;;;;;;;-146.25;100.00;52349.94;2087737;28;20132;-62
2023/05/11 04:12:13;;;;;;;23.17;12.07;;;;;;;-146.25;100.00;52376.31;2079745;28;20916;-62
2023/05/11 04:13:15;;;;;;;23.95;11.55;;;;;;;-146.25;100.00;52360.09;2087871;28;20076;-62
2023/05/11 04:14:17;;;;;;;22.80;11.43;;;;;;;-146.25;100.00;52341.84;2096286;28;20037;-62
2023/05/11 04:15:19;;;;;;;20.27;10.55;;;;;;;-146.25;100.00;52362.13;2087725;28;20139;-62
2023/05/11 04:16:21;;;;;;;21.10;11.00;;;;;;;-146.25;100.00;52349.94;2079325;28;20042;-62
2023/05/11 04:17:23;;;;;;;22.20;11.30;;;;;;;-146.25;100.00;52335.75;2087149;28;31558;-62
2023/05/11 04:18:25;;;;;;;22.95;10.52;;;;;;;-146.25;100.00;52398.59;2086310;28;20045;-62
2023/05/11 04:19:29;;;;;;;18.27;9.90;;;;;;;-146.25;100.00;52380.38;2087603;28;20048;-62
2023/05/11 04:20:34;;;;;;;20.05;9.93;;;;;;;-146.25;100.00;52345.91;2087852;28;24643;-62
2023/05/11 04:21:35;;;;;;;17.55;9.60;;;;;;;-146.25;100.00;52333.72;2096649;28;20103;-63
2023/05/11 04:22:39;;;;;;;19.02;9.98;;;;;;;-146.25;100.00;52339.81;2104558;28;25841;-62
2023/05/11 04:23:41;;;;;;;22.13;10.10;;;;;;;-146.25;100.00;52378.34;2096234;28;35173;-62
2023/05/11 04:24:43;;;;;;;25.52;10.77;;;;;;;-146.25;100.00;52384.41;2096060;28;29503;-62
2023/05/11 04:25:51;;;;;;;21.10;10.23;;;;;;;-146.25;100.00;52354.00;2086987;28;27753;-62
2023/05/11 04:26:56;;;;;;;22.02;10.77;;;;;;;-146.25;100.00;52386.44;2089350;28;20988;-63
2023/05/11 04:28:00;;;;;;;25.13;10.90;;;;;;;-146.25;100.00;52384.41;2097187;28;20037;-62
2023/05/11 04:29:02;;;;;;;24.65;11.02;;;;;;;-146.25;100.00;52321.56;2087695;28;20049;-62
2023/05/11 04:30:09;;;;;;;25.13;11.30;;;;;;;-146.25;100.00;52364.13;2087620;28;20294;-62
2023/05/11 04:31:11;;;;;;;26.30;11.75;;;;;;;-146.25;100.00;52390.50;2087937;28;20985;-62
2023/05/11 04:32:14;;;;;;;32.70;12.18;;;;;;;-146.25;100.00;52319.53;2088172;28;20135;-62
2023/05/11 04:33:19;;;;;;;40.33;12.20;;;;;;;-146.25;100.00;52345.91;2087789;28;20052;-62
2023/05/11 04:34:21;;;;;;;32.78;12.88;;;;;;;-146.25;100.00;52372.25;2088229;28;20180;-62
2023/05/11 04:35:23;;;;;;;38.85;13.02;;;;;;;-146.25;100.00;52341.84;2087410;28;20906;-62
2023/05/11 04:36:26;;;;;;;47.45;13.35;;;;;;;-146.25;100.00;52374.28;2088104;28;20086;-63
2023/05/11 04:37:28;;;;;;;43.28;14.25;;;;;;;-146.25;100.00;52382.38;2096044;28;20072;-63
2023/05/11 04:38:30;;;;;;;44.70;14.30;;;;;;;-146.25;100.00;52404.69;2079900;28;20058;-62
2023/05/11 04:39:33;;;;;;;46.38;14.73;;;;;;;-146.25;100.00;52360.09;2096096;28;21066;-62
2023/05/11 04:40:35;;;;;;;44.63;14.65;;;;;;;-146.25;100.00;52364.13;2103476;28;20099;-62
2023/05/11 04:41:39;;;;;;;43.17;14.85;;;;;;;-146.25;100.00;52388.47;2088227;28;20038;-62
2023/05/11 04:42:44;;;;;;;53.70;15.02;;;;;;;-146.25;100.00;52333.72;2079910;28;20057;-62
2023/05/11 04:43:50;;;;;;;42.63;13.32;;;;;;;-146.25;100.00;52347.91;2088544;28;20049;-61
2023/05/11 04:44:53;;;;;;;47.83;14.05;;;;;;;-146.25;100.00;52392.53;2096350;28;20037;-61
2023/05/11 04:45:55;;;;;;;43.35;14.32;;;;;;;-146.25;100.00;52366.16;2087820;28;20216;-61
2023/05/11 04:47:00;;;;;;;45.50;13.25;;;;;;;-146.25;100.00;52392.53;2088545;28;20044;-62
2023/05/11 04:48:02;;;;;;;37.90;13.55;;;;;;;-146.25;100.00;52347.91;2096155;28;20045;-62
2023/05/11 04:49:04;;;;;;;39.67;13.77;;;;;;;-146.25;100.00;52347.91;2087710;28;20049;-62
2023/05/11 04:50:08;;;;;;;39.25;13.15;;;;;;;-146.25;100.00;52358.06;2087709;28;20045;-62
2023/05/11 04:51:10;;;;;;;37.15;12.23;;;;;;;-146.25;100.00;52347.91;2095998;28;20037;-62